High Point, New Jersey
Current Conditions -  °F | °C
As of 2:53 PM on Monday 24 Nov 2014 (Local Time) from KFWN Reporting Station
Few Clouds Few Clouds  
Wind Chill: 71°   Ceiling: Unl
Heat Index: 71°   Visibility: 10mi
Dew Point: 56°   Wind: 12mph
Humidity: 59%   Direction: 200°SSW
Pressure: 29.52"   Gusts: 26mph
Location:  41.2395°N, 74.6087°W
Report Text: KFWN 241953Z AUTO 20010G23KT 10SM FEW039 22/13 A2952 RMK AO2 SLP995 T02170133
Loading
Personal Weather Stations






























Interactive Weather Map New forecast layout! Learn more

10-Day Weather Forecast

Advertisements
Track Severe Weather on mobile